Time;durP1;ratioP1;P1;durP2;ratioP2;P2;SDS_P1;SDS_P2;PMS_P1;PMS_P2;Temp;Humidity;BMP_temperature;BMP_pressure;BME280_temperature;BME280_humidity;BME280_pressure;Samples;Min_cycle;Max_cycle;Signal;HPM_P1;HPM_P2
2022/09/11 00:01:32;;;;;;;5.80;3.28;;;19.60;79.80;;;;;;5035917;28;20112;-63
2022/09/11 00:03:57;;;;;;;6.90;3.25;;;19.60;79.80;;;;;;5030159;28;20122;-63
2022/09/11 00:06:23;;;;;;;4.35;3.22;;;19.60;79.90;;;;;;5034267;28;20044;-62
2022/09/11 00:08:52;;;;;;;4.75;2.92;;;19.60;79.80;;;;;;5032902;28;20045;-63
2022/09/11 00:11:18;;;;;;;4.07;2.90;;;19.50;79.80;;;;;;5032082;28;20029;-63
2022/09/11 00:13:46;;;;;;;5.43;3.20;;;19.60;79.80;;;;;;5033295;28;20036;-63
2022/09/11 00:16:25;;;;;;;5.78;3.20;;;19.60;79.90;;;;;;5018895;28;20030;-62
2022/09/11 00:18:51;;;;;;;5.65;2.95;;;19.50;79.90;;;;;;5034133;28;20060;-63
2022/09/11 00:21:17;;;;;;;6.95;3.20;;;19.50;79.90;;;;;;5025690;28;20624;-62
2022/09/11 00:23:42;;;;;;;4.57;3.05;;;19.50;79.90;;;;;;5034418;28;20464;-62
2022/09/11 00:26:08;;;;;;;7.25;3.00;;;19.50;80.00;;;;;;5018718;28;20025;-63
2022/09/11 00:28:34;;;;;;;4.10;2.90;;;19.40;80.10;;;;;;5034121;28;20068;-63
2022/09/11 00:31:01;;;;;;;3.50;2.80;;;19.40;80.20;;;;;;5017599;28;20799;-62
2022/09/11 00:33:27;;;;;;;4.78;2.80;;;19.40;80.20;;;;;;5035080;28;20425;-62
2022/09/11 00:36:00;;;;;;;5.35;2.85;;;19.50;80.20;;;;;;5032719;28;20059;-62
2022/09/11 00:38:27;;;;;;;5.32;3.10;;;19.50;80.30;;;;;;5027357;28;20045;-62
2022/09/11 00:40:52;;;;;;;5.28;2.50;;;19.40;80.40;;;;;;5032081;28;20021;-63
2022/09/11 00:43:18;;;;;;;4.65;2.97;;;19.50;80.40;;;;;;5032309;28;20721;-63
2022/09/11 00:45:45;;;;;;;3.90;2.42;;;19.40;80.40;;;;;;5018176;28;20025;-62
2022/09/11 00:48:11;;;;;;;7.03;2.60;;;19.40;80.50;;;;;;5034664;28;20117;-63
2022/09/11 00:50:37;;;;;;;4.95;2.80;;;19.40;80.60;;;;;;5016153;28;20033;-63
2022/09/11 00:53:06;;;;;;;4.90;2.55;;;19.40;80.70;;;;;;5013630;28;20036;-63
2022/09/11 00:55:34;;;;;;;5.93;2.30;;;19.40;80.70;;;;;;5033017;28;20714;-63
2022/09/11 00:58:02;;;;;;;4.50;2.10;;;19.40;80.70;;;;;;5015538;28;20032;-63
2022/09/11 01:00:28;;;;;;;5.20;2.90;;;19.30;80.70;;;;;;5031744;28;20029;-64
2022/09/11 01:02:54;;;;;;;4.45;2.58;;;19.30;80.70;;;;;;5030296;28;20492;-63
2022/09/11 01:05:21;;;;;;;5.57;2.40;;;19.30;80.80;;;;;;5003008;28;21992;-64
2022/09/11 01:07:46;;;;;;;5.88;2.25;;;19.30;80.90;;;;;;5030606;28;20334;-63
2022/09/11 01:10:12;;;;;;;3.65;2.20;;;19.30;80.90;;;;;;5030682;28;20588;-63
2022/09/11 01:12:51;;;;;;;5.95;2.60;;;19.30;80.90;;;;;;5016039;28;20068;-63
2022/09/11 01:15:27;;;;;;;5.57;2.40;;;19.30;81.10;;;;;;5021745;28;20052;-64
2022/09/11 01:18:09;;;;;;;3.53;2.30;;;19.30;81.00;;;;;;5033201;28;20047;-63
2022/09/11 01:20:43;;;;;;;5.63;2.60;;;19.30;81.00;;;;;;5016815;28;20148;-63
2022/09/11 01:23:27;;;;;;;5.00;2.47;;;19.30;81.00;;;;;;5028931;28;20453;-63
2022/09/11 01:26:37;;;;;;;3.78;2.13;;;19.20;81.00;;;;;;5026577;28;20028;-64
2022/09/11 01:29:26;;;;;;;3.22;2.25;;;19.30;81.00;;;;;;5031446;28;20273;-63
2022/09/11 01:32:23;;;;;;;6.60;2.47;;;19.30;81.00;;;;;;5033555;28;20048;-63
2022/09/11 01:35:07;;;;;;;2.75;2.08;;;19.30;81.00;;;;;;5019334;28;20057;-63
2022/09/11 01:37:56;;;;;;;5.47;2.20;;;19.20;80.90;;;;;;5016081;28;20033;-63
2022/09/11 01:40:39;;;;;;;3.88;1.92;;;19.20;81.00;;;;;;5027469;28;20120;-64
2022/09/11 01:43:08;;;;;;;4.40;2.17;;;19.20;81.10;;;;;;5031040;28;20029;-64
2022/09/11 01:45:35;;;;;;;6.63;2.72;;;19.20;81.10;;;;;;5032570;28;20025;-63
2022/09/11 01:48:01;;;;;;;2.83;2.17;;;19.20;81.00;;;;;;5031859;28;20462;-64
2022/09/11 01:50:27;;;;;;;3.28;2.13;;;19.20;81.10;;;;;;5030452;28;20021;-63
2022/09/11 01:52:58;;;;;;;3.20;2.20;;;19.20;81.10;;;;;;5030515;28;20079;-69
2022/09/11 01:55:30;;;;;;;3.85;2.13;;;19.20;81.10;;;;;;5016827;28;20070;-63
2022/09/11 01:57:59;;;;;;;4.88;2.40;;;19.20;81.10;;;;;;5012440;28;20040;-64
2022/09/11 02:00:24;;;;;;;3.40;2.17;;;19.20;81.20;;;;;;5031205;28;20029;-63
2022/09/11 02:02:58;;;;;;;4.50;2.25;;;19.10;81.20;;;;;;5031218;28;20033;-64
2022/09/11 02:05:29;;;;;;;4.30;2.47;;;19.10;81.20;;;;;;5002785;28;20420;-61
2022/09/11 02:08:29;;;;;;;3.90;1.85;;;19.10;81.20;;;;;;5029475;28;20036;-61
2022/09/11 02:11:04;;;;;;;6.03;2.42;;;19.20;81.20;;;;;;5028089;28;20296;-61
2022/09/11 02:13:41;;;;;;;2.97;1.92;;;19.10;81.20;;;;;;5027032;28;20036;-61
2022/09/11 02:16:34;;;;;;;4.20;2.35;;;19.10;81.30;;;;;;5029941;28;20036;-61
2022/09/11 02:19:01;;;;;;;3.22;1.92;;;19.10;81.40;;;;;;5035423;28;20455;-62
2022/09/11 02:21:27;;;;;;;3.25;2.13;;;19.10;81.40;;;;;;5029618;28;20036;-61
2022/09/11 02:23:54;;;;;;;3.00;1.92;;;19.00;81.40;;;;;;5029927;28;20030;-61
2022/09/11 02:26:21;;;;;;;3.75;2.10;;;19.00;81.40;;;;;;5017716;28;20312;-61
2022/09/11 02:28:47;;;;;;;2.70;2.13;;;19.10;81.50;;;;;;5009785;28;20034;-61
2022/09/11 02:31:13;;;;;;;4.60;2.03;;;19.00;81.60;;;;;;5029222;28;20032;-62
2022/09/11 02:33:38;;;;;;;2.97;1.88;;;19.00;81.50;;;;;;5030436;28;20109;-60
2022/09/11 02:36:27;;;;;;;3.63;2.13;;;19.10;81.50;;;;;;5030932;28;20612;-62
2022/09/11 02:39:14;;;;;;;3.35;1.88;;;19.10;81.50;;;;;;5020671;28;20037;-62
2022/09/11 02:41:59;;;;;;;2.65;1.58;;;19.10;81.50;;;;;;5032656;28;20169;-62
2022/09/11 02:44:55;;;;;;;2.30;1.80;;;19.00;81.50;;;;;;5022762;28;20280;-61
2022/09/11 02:47:27;;;;;;;3.40;1.73;;;19.00;81.60;;;;;;5037215;28;20081;-62
2022/09/11 02:50:03;;;;;;;3.38;2.10;;;19.00;81.60;;;;;;5035706;28;20492;-61
2022/09/11 02:52:36;;;;;;;4.63;1.75;;;19.00;81.60;;;;;;5032611;28;20021;-62
2022/09/11 02:55:09;;;;;;;2.85;1.85;;;19.00;81.60;;;;;;5035235;28;20021;-62
2022/09/11 02:57:47;;;;;;;2.90;1.85;;;19.00;81.70;;;;;;5030997;28;20041;-63
2022/09/11 03:00:13;;;;;;;5.03;1.88;;;19.00;81.70;;;;;;5018901;28;20492;-61
2022/09/11 03:02:40;;;;;;;2.47;1.73;;;19.00;81.70;;;;;;5033099;28;20112;-61
2022/09/11 03:05:06;;;;;;;4.35;2.05;;;19.00;81.80;;;;;;5020013;28;20017;-61
2022/09/11 03:07:32;;;;;;;2.53;1.52;;;19.00;81.90;;;;;;5034930;28;20060;-61
2022/09/11 03:09:57;;;;;;;4.85;1.75;;;18.90;81.90;;;;;;5036186;28;20038;-62
2022/09/11 03:12:23;;;;;;;3.33;1.67;;;18.90;82.00;;;;;;5032806;28;22524;-62
2022/09/11 03:14:49;;;;;;;3.15;1.52;;;18.90;82.10;;;;;;5031192;28;20041;-62
2022/09/11 03:17:15;;;;;;;2.38;1.42;;;18.90;82.20;;;;;;5033866;28;20044;-62
2022/09/11 03:19:41;;;;;;;3.25;1.60;;;18.90;82.30;;;;;;5020301;28;20119;-62
2022/09/11 03:22:06;;;;;;;2.47;1.67;;;18.90;82.40;;;;;;5014094;28;20275;-62
2022/09/11 03:24:32;;;;;;;2.78;1.35;;;18.90;82.40;;;;;;5035348;28;20037;-62
2022/09/11 03:26:57;;;;;;;2.28;1.50;;;18.90;82.40;;;;;;5035713;28;20162;-62
2022/09/11 03:29:23;;;;;;;2.47;1.40;;;18.90;82.30;;;;;;5032566;28;20040;-62
2022/09/11 03:31:48;;;;;;;3.88;1.80;;;18.90;82.20;;;;;;5034886;28;20122;-62
2022/09/11 03:34:16;;;;;;;4.63;2.00;;;18.90;82.20;;;;;;5021141;28;20049;-63
2022/09/11 03:36:42;;;;;;;2.95;1.77;;;18.90;82.30;;;;;;5032759;28;20021;-62
2022/09/11 03:39:08;;;;;;;2.65;1.40;;;18.90;82.40;;;;;;5019980;28;20501;-63
2022/09/11 03:41:34;;;;;;;2.08;1.48;;;18.80;82.40;;;;;;5034079;28;20035;-62
2022/09/11 03:43:59;;;;;;;3.25;1.52;;;18.80;82.40;;;;;;5032442;28;20102;-62
2022/09/11 03:46:25;;;;;;;7.57;1.48;;;18.80;82.50;;;;;;5034741;28;20025;-62
2022/09/11 03:48:51;;;;;;;2.75;1.25;;;18.80;82.50;;;;;;5013289;28;20393;-61
2022/09/11 03:51:17;;;;;;;2.85;1.50;;;18.90;82.60;;;;;;5033709;28;20127;-63
2022/09/11 03:53:43;;;;;;;2.78;1.17;;;18.80;82.70;;;;;;5004947;28;21930;-62
2022/09/11 03:56:09;;;;;;;4.85;1.50;;;18.80;82.80;;;;;;5034121;28;20083;-62
2022/09/11 03:58:34;;;;;;;2.53;1.58;;;18.80;83.80;;;;;;5034691;28;20041;-62
2022/09/11 04:01:00;;;;;;;3.30;1.60;;;18.80;83.20;;;;;;5034669;28;20115;-63
2022/09/11 04:03:25;;;;;;;3.22;1.40;;;18.80;83.30;;;;;;5033321;28;20025;-62
2022/09/11 04:05:58;;;;;;;4.82;1.60;;;18.80;83.40;;;;;;5030009;28;20045;-62
2022/09/11 04:08:24;;;;;;;4.47;1.25;;;18.70;83.20;;;;;;5019118;28;20051;-62
2022/09/11 04:10:56;;;;;;;1.77;1.08;;;18.80;83.30;;;;;;5034487;28;20428;-62
2022/09/11 04:13:28;;;;;;;3.05;1.40;;;18.80;83.30;;;;;;5034905;28;20136;-62
2022/09/11 04:15:57;;;;;;;2.25;1.30;;;18.80;83.40;;;;;;5018389;28;20035;-62
2022/09/11 04:18:23;;;;;;;2.35;1.30;;;18.80;83.50;;;;;;5034137;28;20033;-63
2022/09/11 04:20:48;;;;;;;2.28;1.50;;;18.70;83.60;;;;;;5028257;28;20037;-62
2022/09/11 04:23:14;;;;;;;3.42;1.52;;;18.70;84.30;;;;;;5033185;28;20061;-63
2022/09/11 04:25:39;;;;;;;2.70;1.20;;;18.70;83.70;;;;;;5033429;28;20386;-62
2022/09/11 04:28:05;;;;;;;1.60;1.10;;;18.70;83.90;;;;;;5034556;28;20036;-63
2022/09/11 04:30:30;;;;;;;2.85;1.30;;;18.70;83.90;;;;;;5031374;28;20032;-62
2022/09/11 04:32:56;;;;;;;2.85;1.40;;;18.70;84.00;;;;;;5016399;28;20029;-63
2022/09/11 04:35:21;;;;;;;1.58;1.00;;;18.70;84.00;;;;;;5033315;28;20049;-62
2022/09/11 04:37:48;;;;;;;4.18;1.52;;;18.70;84.10;;;;;;5030526;28;20459;-62
2022/09/11 04:40:13;;;;;;;2.78;1.13;;;18.70;84.20;;;;;;5033176;28;20039;-63
2022/09/11 04:42:39;;;;;;;2.38;1.30;;;18.70;84.30;;;;;;5021135;28;20025;-63
2022/09/11 04:45:05;;;;;;;2.83;1.40;;;18.70;84.30;;;;;;5033792;28;20425;-62
2022/09/11 04:47:30;;;;;;;1.85;1.10;;;18.70;84.40;;;;;;5032856;28;20251;-62
2022/09/11 04:49:56;;;;;;;2.22;1.35;;;18.60;84.40;;;;;;5029319;28;20102;-62
2022/09/11 04:52:21;;;;;;;3.13;1.45;;;18.70;84.60;;;;;;5030346;28;20040;-62
2022/09/11 04:54:47;;;;;;;3.25;1.20;;;18.70;84.50;;;;;;5033850;28;20048;-62
2022/09/11 04:57:13;;;;;;;2.72;1.30;;;18.60;84.60;;;;;;5033540;28;20052;-64
2022/09/11 04:59:38;;;;;;;2.40;1.30;;;18.60;84.70;;;;;;5034606;28;20033;-63
2022/09/11 05:02:04;;;;;;;4.00;1.15;;;18.60;84.80;;;;;;5031485;28;20041;-62
2022/09/11 05:04:30;;;;;;;25.38;3.13;;;18.60;85.10;;;;;;5030948;28;20040;-63
2022/09/11 05:06:55;;;;;;;25.48;3.08;;;18.70;85.20;;;;;;5025832;28;20075;-62
2022/09/11 05:09:21;;;;;;;12.07;2.13;;;18.60;85.20;;;;;;5018855;28;20120;-62
2022/09/11 05:11:46;;;;;;;16.70;2.75;;;18.60;85.30;;;;;;5030486;28;20378;-62
2022/09/11 05:14:12;;;;;;;26.55;2.95;;;18.60;85.30;;;;;;5032773;28;20025;-62
2022/09/11 05:16:38;;;;;;;32.33;2.63;;;18.60;85.20;;;;;;5032167;28;20075;-62
2022/09/11 05:19:03;;;;;;;15.88;3.10;;;18.60;85.20;;;;;;5034351;28;20045;-63
2022/09/11 05:21:29;;;;;;;12.85;2.72;;;18.60;85.10;;;;;;5026984;28;20041;-62
2022/09/11 05:23:56;;;;;;;28.05;3.38;;;18.60;85.20;;;;;;5030677;28;20068;-62
2022/09/11 05:26:23;;;;;;;27.42;3.03;;;18.60;85.20;;;;;;5016657;28;20032;-62
2022/09/11 05:28:56;;;;;;;21.05;2.90;;;18.60;85.20;;;;;;5018066;28;20695;-62
2022/09/11 05:31:22;;;;;;;20.25;3.42;;;18.50;85.20;;;;;;5002790;28;20036;-63
2022/09/11 05:33:50;;;;;;;11.10;2.22;;;18.60;85.40;;;;;;5016379;28;20037;-62
2022/09/11 05:36:16;;;;;;;24.13;4.20;;;18.60;85.40;;;;;;5014608;28;20044;-63
2022/09/11 05:38:42;;;;;;;27.77;3.22;;;18.60;85.60;;;;;;5027297;28;20040;-62
2022/09/11 05:41:10;;;;;;;22.15;3.08;;;18.60;86.00;;;;;;5017069;28;20823;-62
2022/09/11 05:43:36;;;;;;;14.77;2.92;;;18.60;86.20;;;;;;5032609;28;20116;-62
2022/09/11 05:46:01;;;;;;;14.13;3.20;;;18.50;86.20;;;;;;5028519;28;20025;-62
2022/09/11 05:48:27;;;;;;;19.27;3.15;;;18.60;86.30;;;;;;5036227;28;20025;-62
2022/09/11 05:50:54;;;;;;;17.98;2.67;;;18.60;86.20;;;;;;5030910;28;20026;-62
2022/09/11 05:53:20;;;;;;;10.68;2.40;;;18.60;86.30;;;;;;5034430;28;20579;-63
2022/09/11 05:55:46;;;;;;;13.73;2.53;;;18.60;86.30;;;;;;5029767;28;20116;-62
2022/09/11 05:58:12;;;;;;;15.50;2.72;;;18.50;86.30;;;;;;5016129;28;20021;-63
2022/09/11 06:00:39;;;;;;;17.00;2.65;;;18.60;86.50;;;;;;5033806;28;20098;-62
2022/09/11 06:03:05;;;;;;;18.95;2.67;;;18.50;86.40;;;;;;5032502;28;20029;-63
2022/09/11 06:05:31;;;;;;;14.20;2.50;;;18.60;86.70;;;;;;5018309;28;20124;-62
2022/09/11 06:07:57;;;;;;;10.02;2.03;;;18.50;86.90;;;;;;5032739;28;20111;-64
2022/09/11 06:10:22;;;;;;;10.60;2.00;;;18.60;86.90;;;;;;5028744;28;20043;-63
2022/09/11 06:12:48;;;;;;;15.02;2.58;;;18.60;86.90;;;;;;5039445;28;20029;-63
2022/09/11 06:15:14;;;;;;;11.98;2.17;;;18.50;87.00;;;;;;5037645;28;20055;-63
2022/09/11 06:17:39;;;;;;;7.97;1.92;;;18.60;87.00;;;;;;5035466;28;20122;-63
2022/09/11 06:20:05;;;;;;;10.48;2.00;;;18.50;86.80;;;;;;5034863;28;20033;-64
2022/09/11 06:22:32;;;;;;;8.65;1.92;;;18.60;86.90;;;;;;5017459;28;20029;-63
2022/09/11 06:24:57;;;;;;;14.07;2.25;;;18.60;86.90;;;;;;5034928;28;20033;-63
2022/09/11 06:27:23;;;;;;;17.48;2.63;;;18.60;86.90;;;;;;5031361;28;20808;-65
2022/09/11 06:29:49;;;;;;;13.70;2.17;;;18.60;86.80;;;;;;5036919;28;20519;-64
2022/09/11 06:32:15;;;;;;;12.88;2.40;;;18.60;86.80;;;;;;5037109;28;20021;-64
2022/09/11 06:34:40;;;;;;;11.88;1.80;;;18.60;86.80;;;;;;5038006;28;20444;-63
2022/09/11 06:37:06;;;;;;;13.55;2.33;;;18.60;86.50;;;;;;5037752;28;20060;-63
2022/09/11 06:39:33;;;;;;;5.90;1.90;;;18.70;86.70;;;;;;5038219;28;20033;-63
2022/09/11 06:41:58;;;;;;;15.73;2.50;;;18.60;86.60;;;;;;5032550;28;20536;-64
2022/09/11 06:44:25;;;;;;;10.60;2.22;;;18.60;86.60;;;;;;5032933;28;20049;-63
2022/09/11 06:46:51;;;;;;;7.40;1.80;;;18.60;86.70;;;;;;5037193;28;20534;-63
2022/09/11 06:49:16;;;;;;;9.13;1.95;;;18.60;86.60;;;;;;5037382;28;20139;-64
2022/09/11 06:51:42;;;;;;;8.85;2.10;;;18.60;86.60;;;;;;5034549;28;20489;-63
2022/09/11 06:54:07;;;;;;;5.07;1.90;;;18.70;86.70;;;;;;5034402;28;20029;-63
2022/09/11 06:56:33;;;;;;;10.07;2.17;;;18.70;86.90;;;;;;5004001;28;20102;-66
2022/09/11 06:58:58;;;;;;;10.18;1.50;;;18.70;87.00;;;;;;5033916;28;20021;-68
2022/09/11 07:01:24;;;;;;;9.02;1.73;;;18.60;86.90;;;;;;5032217;28;20029;-64
2022/09/11 07:03:52;;;;;;;8.02;2.35;;;18.70;86.80;;;;;;5034776;28;20033;-62
2022/09/11 07:06:29;;;;;;;8.02;1.80;;;18.70;86.60;;;;;;5034159;28;20419;-63
2022/09/11 07:08:59;;;;;;;6.97;1.42;;;18.70;86.60;;;;;;5032981;28;21635;-63
2022/09/11 07:11:25;;;;;;;9.60;1.95;;;18.70;86.60;;;;;;5017436;28;20052;-64
2022/09/11 07:13:50;;;;;;;6.75;1.45;;;18.60;86.60;;;;;;5030901;28;20032;-64
2022/09/11 07:16:16;;;;;;;8.75;1.63;;;18.70;86.60;;;;;;5033873;28;20040;-63
2022/09/11 07:18:43;;;;;;;9.07;1.70;;;18.70;86.60;;;;;;5036253;28;20036;-63
2022/09/11 07:21:22;;;;;;;4.90;1.80;;;18.70;86.60;;;;;;5032714;28;20032;-64
2022/09/11 07:23:50;;;;;;;3.65;1.45;;;18.60;86.70;;;;;;5036149;28;20115;-64
2022/09/11 07:26:15;;;;;;;9.10;1.65;;;18.70;86.60;;;;;;5002699;28;20071;-63
2022/09/11 07:28:41;;;;;;;5.10;1.30;;;18.70;86.60;;;;;;5029441;28;20260;-63
2022/09/11 07:31:14;;;;;;;4.38;1.90;;;18.60;86.40;;;;;;5033106;28;20340;-63
2022/09/11 07:33:44;;;;;;;6.43;1.52;;;18.70;86.50;;;;;;5033409;28;20060;-63
2022/09/11 07:36:10;;;;;;;4.35;1.40;;;18.70;86.50;;;;;;5016290;28;20033;-63
2022/09/11 07:38:37;;;;;;;3.15;1.30;;;18.60;86.50;;;;;;5020570;28;20031;-64
2022/09/11 07:41:02;;;;;;;4.80;1.50;;;18.60;86.40;;;;;;5034995;28;20045;-63
2022/09/11 07:43:28;;;;;;;6.20;1.33;;;18.70;86.30;;;;;;5036428;28;20041;-63
2022/09/11 07:45:55;;;;;;;6.00;1.30;;;18.70;86.30;;;;;;5032136;28;20037;-63
2022/09/11 07:48:20;;;;;;;5.43;1.60;;;18.60;86.30;;;;;;5021677;28;20157;-64
2022/09/11 07:51:01;;;;;;;6.47;1.55;;;18.70;86.50;;;;;;5020652;28;20063;-63
2022/09/11 07:53:36;;;;;;;3.63;1.15;;;18.60;86.50;;;;;;5034708;28;20071;-63
2022/09/11 07:56:06;;;;;;;2.60;1.42;;;18.70;86.50;;;;;;5033844;28;20041;-64
2022/09/11 07:58:37;;;;;;;4.45;1.50;;;18.60;86.50;;;;;;5019567;28;20102;-64
2022/09/11 08:01:04;;;;;;;4.53;1.30;;;18.70;86.40;;;;;;5030312;28;20040;-63
2022/09/11 08:03:30;;;;;;;6.20;1.33;;;18.70;86.40;;;;;;5032545;28;20033;-63
2022/09/11 08:06:03;;;;;;;4.65;1.52;;;18.70;86.50;;;;;;5034359;28;20032;-63
2022/09/11 08:08:28;;;;;;;6.30;1.63;;;18.70;86.90;;;;;;5034600;28;20037;-63
2022/09/11 08:11:01;;;;;;;8.88;1.73;;;18.60;87.30;;;;;;5016501;28;20094;-64
2022/09/11 08:13:27;;;;;;;4.43;1.38;;;18.60;87.20;;;;;;5034686;28;20033;-64
2022/09/11 08:15:52;;;;;;;10.25;1.67;;;18.60;87.10;;;;;;5036311;28;20041;-63
2022/09/11 08:18:18;;;;;;;5.93;1.30;;;18.60;87.10;;;;;;5037022;28;20029;-63
2022/09/11 08:20:43;;;;;;;12.02;1.73;;;18.60;86.90;;;;;;5016927;28;20128;-63
2022/09/11 08:23:10;;;;;;;6.13;1.35;;;18.60;87.10;;;;;;5036707;28;20149;-64
2022/09/11 08:25:36;;;;;;;10.85;1.77;;;18.60;87.10;;;;;;5019830;28;20033;-63
2022/09/11 08:28:02;;;;;;;5.18;1.67;;;18.70;87.30;;;;;;5037333;28;20081;-63
2022/09/11 08:30:27;;;;;;;6.03;1.48;;;18.60;87.30;;;;;;5040587;28;20522;-63
2022/09/11 08:32:53;;;;;;;11.60;2.17;;;18.60;86.90;;;;;;5021088;28;20365;-63
2022/09/11 08:35:19;;;;;;;17.48;2.70;;;18.70;86.80;;;;;;5036005;28;20033;-63
2022/09/11 08:37:44;;;;;;;9.95;2.42;;;18.70;86.90;;;;;;5020184;28;20029;-63
2022/09/11 08:40:10;;;;;;;11.32;2.38;;;18.70;87.00;;;;;;5038488;28;20148;-62
2022/09/11 08:42:38;;;;;;;14.18;2.17;;;18.80;87.30;;;;;;5023656;28;20037;-64
2022/09/11 08:45:06;;;;;;;18.73;2.25;;;18.80;87.40;;;;;;5036483;28;20424;-63
2022/09/11 08:47:33;;;;;;;20.60;2.95;;;18.80;87.40;;;;;;5034485;28;20033;-63
2022/09/11 08:50:11;;;;;;;18.58;2.45;;;18.80;87.30;;;;;;5037788;28;20110;-64
2022/09/11 08:52:43;;;;;;;20.88;3.33;;;18.90;87.10;;;;;;5033121;28;20143;-64
2022/09/11 08:55:12;;;;;;;29.25;3.83;;;18.80;86.80;;;;;;5038267;28;20036;-63
2022/09/11 08:57:57;;;;;;;21.50;2.80;;;18.90;86.70;;;;;;5024876;28;20017;-63
2022/09/11 09:00:30;;;;;;;27.58;3.78;;;18.90;86.50;;;;;;5017501;28;20514;-63
2022/09/11 09:03:17;;;;;;;33.50;3.95;;;18.90;86.60;;;;;;5035162;28;20021;-64
2022/09/11 09:05:54;;;;;;;35.67;3.72;;;18.90;86.80;;;;;;5037415;28;20387;-64
2022/09/11 09:08:48;;;;;;;29.23;3.30;;;18.90;86.60;;;;;;5016221;28;20044;-64
2022/09/11 09:11:19;;;;;;;59.08;5.88;;;19.00;86.50;;;;;;5037183;28;20052;-63
2022/09/11 09:14:04;;;;;;;45.90;5.05;;;19.00;86.40;;;;;;5036957;28;20092;-64
2022/09/11 09:16:44;;;;;;;43.25;4.93;;;19.00;86.30;;;;;;5036592;28;20408;-63
2022/09/11 09:19:22;;;;;;;53.40;5.55;;;19.10;86.10;;;;;;5036897;28;20029;-63
2022/09/11 09:21:57;;;;;;;58.80;5.93;;;19.10;86.10;;;;;;5035728;28;20050;-64
2022/09/11 09:24:22;;;;;;;65.03;7.60;;;19.10;85.90;;;;;;5032374;28;20067;-64
2022/09/11 09:26:50;;;;;;;59.55;5.63;;;19.10;85.70;;;;;;5036536;28;20037;-63
2022/09/11 09:29:24;;;;;;;53.40;6.53;;;19.10;85.60;;;;;;5035763;28;20138;-62
2022/09/11 09:31:52;;;;;;;80.70;8.37;;;19.20;85.60;;;;;;5033916;28;20186;-63
2022/09/11 09:34:20;;;;;;;67.78;6.63;;;19.10;85.50;;;;;;5017205;28;20279;-62
2022/09/11 09:36:55;;;;;;;73.80;7.55;;;19.20;85.50;;;;;;5036335;28;20041;-62
2022/09/11 09:39:21;;;;;;;86.47;9.27;;;19.20;85.60;;;;;;5036042;28;20067;-63
2022/09/11 09:42:15;;;;;;;77.88;8.85;;;19.20;85.50;;;;;;5032958;28;20464;-63
2022/09/11 09:44:56;;;;;;;65.80;8.05;;;19.30;85.40;;;;;;5019663;28;20045;-62
2022/09/11 09:47:21;;;;;;;93.78;9.50;;;19.30;85.30;;;;;;5025393;28;20400;-63
2022/09/11 09:49:47;;;;;;;77.30;8.98;;;19.30;85.20;;;;;;5040574;28;20037;-63
2022/09/11 09:52:19;;;;;;;70.93;8.18;;;19.30;85.10;;;;;;5022552;28;20124;-62
2022/09/11 09:55:00;;;;;;;100.30;10.88;;;19.30;84.90;;;;;;5041392;28;20033;-63
2022/09/11 09:57:30;;;;;;;90.93;10.20;;;19.30;84.90;;;;;;5037916;28;20029;-63
2022/09/11 10:00:08;;;;;;;87.35;10.65;;;19.40;85.00;;;;;;5026420;28;20676;-63
2022/09/11 10:02:40;;;;;;;96.28;10.48;;;19.40;85.00;;;;;;5040278;28;20024;-63
2022/09/11 10:05:12;;;;;;;81.95;9.25;;;19.40;84.80;;;;;;5040332;28;20059;-63
2022/09/11 10:08:01;;;;;;;129.15;12.18;;;19.40;84.60;;;;;;5038963;28;20899;-63
2022/09/11 10:10:36;;;;;;;86.10;9.73;;;19.50;84.60;;;;;;5024556;28;20021;-65
2022/09/11 10:13:19;;;;;;;70.88;9.07;;;19.50;84.10;;;;;;5035075;28;20030;-62
2022/09/11 10:15:49;;;;;;;84.88;9.68;;;19.60;84.00;;;;;;5035494;28;20428;-63
2022/09/11 10:18:36;;;;;;;76.93;9.98;;;19.60;83.80;;;;;;5021495;28;20317;-62
2022/09/11 10:21:11;;;;;;;96.05;9.73;;;19.60;83.60;;;;;;5033952;28;20041;-63
2022/09/11 10:23:56;;;;;;;123.20;11.90;;;19.60;83.00;;;;;;5036287;28;20098;-63
2022/09/11 10:26:39;;;;;;;96.00;10.75;;;19.60;82.90;;;;;;5021954;28;20250;-62
2022/09/11 10:29:07;;;;;;;97.47;10.50;;;19.70;82.40;;;;;;5032573;28;20453;-63
2022/09/11 10:31:34;;;;;;;127.85;12.65;;;19.70;82.30;;;;;;5018496;28;20032;-63
2022/09/11 10:34:00;;;;;;;110.65;11.02;;;19.80;82.00;;;;;;5017669;28;20112;-63
2022/09/11 10:36:27;;;;;;;100.57;11.38;;;19.80;82.00;;;;;;5034393;28;20108;-63
2022/09/11 10:38:53;;;;;;;68.88;9.43;;;20.00;81.60;;;;;;5003692;28;20033;-63
2022/09/11 10:41:23;;;;;;;121.60;10.85;;;19.90;80.80;;;;;;5014619;28;20431;-63
2022/09/11 10:43:59;;;;;;;90.90;11.18;;;19.90;80.40;;;;;;5029117;28;20060;-63
2022/09/11 10:46:29;;;;;;;147.10;14.13;;;20.00;80.20;;;;;;5019740;28;20099;-63
2022/09/11 10:49:19;;;;;;;117.88;12.90;;;20.10;80.40;;;;;;5034773;28;20040;-64
2022/09/11 10:52:18;;;;;;;164.50;15.50;;;20.10;80.10;;;;;;5032567;28;20076;-64
2022/09/11 10:55:05;;;;;;;114.55;12.00;;;20.10;80.10;;;;;;5017969;28;20040;-63
2022/09/11 10:57:37;;;;;;;99.45;11.75;;;20.20;79.80;;;;;;5031116;28;20214;-63
2022/09/11 11:00:20;;;;;;;123.40;12.55;;;20.20;79.60;;;;;;5027132;28;20037;-63
2022/09/11 11:02:53;;;;;;;96.72;12.18;;;20.30;79.50;;;;;;5021846;28;20129;-63
2022/09/11 11:05:34;;;;;;;123.72;10.85;;;20.30;78.90;;;;;;5023557;28;20020;-63
2022/09/11 11:08:06;;;;;;;121.90;12.32;;;20.30;78.50;;;;;;5031761;28;20195;-63
2022/09/11 11:10:57;;;;;;;114.40;12.70;;;20.40;78.60;;;;;;5033600;28;20028;-63
2022/09/11 11:13:30;;;;;;;110.25;10.88;;;20.40;78.10;;;;;;5031786;28;20504;-63
2022/09/11 11:16:26;;;;;;;105.05;11.23;;;20.50;77.90;;;;;;5024068;28;20068;-63
2022/09/11 11:19:05;;;;;;;103.88;12.05;;;20.50;77.70;;;;;;5032404;28;20020;-63
2022/09/11 11:21:56;;;;;;;133.07;13.63;;;20.50;77.50;;;;;;5031948;28;20033;-63
2022/09/11 11:24:57;;;;;;;113.35;12.43;;;20.60;77.60;;;;;;5031994;28;20052;-63
2022/09/11 11:27:44;;;;;;;103.65;12.35;;;20.60;76.90;;;;;;5017318;28;20029;-63
2022/09/11 11:30:28;;;;;;;106.00;11.63;;;20.60;77.10;;;;;;5033777;28;20041;-63
2022/09/11 11:33:19;;;;;;;123.88;12.20;;;20.70;77.10;;;;;;5010624;28;20037;-63
2022/09/11 11:35:45;;;;;;;97.85;11.50;;;20.70;76.70;;;;;;5033034;28;20025;-63
2022/09/11 11:38:26;;;;;;;92.43;10.63;;;20.80;76.70;;;;;;5031802;28;20109;-63
2022/09/11 11:41:03;;;;;;;104.25;10.23;;;20.80;76.50;;;;;;5016649;28;20044;-64
2022/09/11 11:43:31;;;;;;;115.90;12.30;;;20.80;76.00;;;;;;5029111;28;20033;-63
2022/09/11 11:46:04;;;;;;;105.15;11.02;;;20.80;76.20;;;;;;5027235;28;20048;-63
2022/09/11 11:48:58;;;;;;;88.72;9.82;;;20.90;76.20;;;;;;5008897;28;20045;-63
2022/09/11 11:51:26;;;;;;;98.13;11.82;;;20.90;75.80;;;;;;5016556;28;20049;-63
2022/09/11 11:54:24;;;;;;;80.72;10.90;;;21.00;75.50;;;;;;5024734;28;20022;-63
2022/09/11 11:56:51;;;;;;;101.53;12.07;;;21.00;75.20;;;;;;5030751;28;20033;-63
2022/09/11 11:59:39;;;;;;;78.45;9.82;;;21.00;75.20;;;;;;5031382;28;20056;-63
2022/09/11 12:02:07;;;;;;;99.65;10.55;;;21.10;75.00;;;;;;5031440;28;20021;-63
2022/09/11 12:04:44;;;;;;;90.45;9.52;;;21.20;74.70;;;;;;5032071;28;20025;-62
2022/09/11 12:07:21;;;;;;;87.93;9.20;;;21.20;74.20;;;;;;5032482;28;20104;-63
2022/09/11 12:09:51;;;;;;;83.65;9.88;;;21.30;74.10;;;;;;5016279;28;20044;-67
2022/09/11 12:12:16;;;;;;;65.93;9.60;;;21.40;74.20;;;;;;5012408;28;20037;-63
2022/09/11 12:15:02;;;;;;;116.30;11.38;;;21.40;73.90;;;;;;5012188;28;20097;-63
2022/09/11 12:17:29;;;;;;;89.70;9.32;;;21.40;73.50;;;;;;5016145;28;20056;-65
2022/09/11 12:20:29;;;;;;;88.63;9.20;;;21.40;73.40;;;;;;5027905;28;20041;-64
2022/09/11 12:22:54;;;;;;;78.32;8.43;;;21.50;73.10;;;;;;5034146;28;20085;-63
2022/09/11 12:25:20;;;;;;;79.65;9.65;;;21.50;73.00;;;;;;5000969;28;20135;-63
2022/09/11 12:28:19;;;;;;;63.08;8.27;;;21.60;73.00;;;;;;5033360;28;20036;-65
2022/09/11 12:31:07;;;;;;;73.68;9.38;;;21.60;72.60;;;;;;5023450;28;20053;-64
2022/09/11 12:33:43;;;;;;;75.22;8.63;;;21.70;72.50;;;;;;5031060;28;20048;-63
2022/09/11 12:36:29;;;;;;;75.22;9.18;;;21.70;72.20;;;;;;5028321;28;20033;-63
2022/09/11 12:39:00;;;;;;;61.13;7.80;;;21.80;71.90;;;;;;5017273;28;20037;-63
2022/09/11 12:41:27;;;;;;;82.18;9.35;;;21.90;71.70;;;;;;5027191;28;20074;-63
2022/09/11 12:43:53;;;;;;;90.45;9.23;;;21.90;71.80;;;;;;5030993;28;20038;-63
2022/09/11 12:46:22;;;;;;;73.43;9.45;;;22.00;71.80;;;;;;5031889;28;20029;-63
2022/09/11 12:48:51;;;;;;;118.18;10.07;;;22.00;71.40;;;;;;5029318;28;20041;-63
2022/09/11 12:51:18;;;;;;;91.55;10.00;;;22.10;71.30;;;;;;5021371;28;20029;-63
2022/09/11 12:53:44;;;;;;;101.50;10.93;;;22.10;71.30;;;;;;5025755;28;20120;-64
2022/09/11 12:56:20;;;;;;;96.13;8.90;;;22.20;71.00;;;;;;5024591;28;20029;-64
2022/09/11 12:58:50;;;;;;;90.15;10.95;;;22.20;71.10;;;;;;5007655;28;20036;-64
2022/09/11 13:01:19;;;;;;;72.90;8.85;;;22.30;71.10;;;;;;5020569;28;20588;-64